createdAt,value
2019-06-10T00:00:13.449Z,989.76
2019-06-10T00:01:08.463Z,989.76
2019-06-10T00:02:07.258Z,989.76
2019-06-10T00:03:07.238Z,989.78
2019-06-10T00:04:08.864Z,989.75
2019-06-10T00:05:07.279Z,989.72
2019-06-10T00:06:07.149Z,989.70
2019-06-10T00:07:07.488Z,989.64
2019-06-10T00:08:07.423Z,989.66
2019-06-10T00:09:08.158Z,989.63
2019-06-10T00:10:07.724Z,989.60
2019-06-10T00:11:07.962Z,989.63
2019-06-10T00:12:09.461Z,989.65
2019-06-10T00:13:08.639Z,989.62
2019-06-10T00:14:10.569Z,989.66
2019-06-10T00:15:10.698Z,989.66
2019-06-10T00:16:08.628Z,989.65
2019-06-10T00:17:10.930Z,989.63
2019-06-10T00:18:30.842Z,989.66
2019-06-10T00:19:11.929Z,989.61
2019-06-10T00:20:11.136Z,989.60
2019-06-10T00:21:11.165Z,989.59
2019-06-10T00:22:11.649Z,989.61
2019-06-10T00:23:12.307Z,989.57
2019-06-10T00:24:11.789Z,989.55
2019-06-10T00:25:12.007Z,989.53
2019-06-10T00:26:12.385Z,989.50
2019-06-10T00:27:11.756Z,989.51
2019-06-10T00:28:12.096Z,989.53
2019-06-10T00:29:11.913Z,989.54
2019-06-10T00:30:12.257Z,989.55
2019-06-10T00:31:11.499Z,989.58
2019-06-10T00:32:13.039Z,989.61
2019-06-10T00:33:12.694Z,989.59
2019-06-10T00:34:12.399Z,989.60
2019-06-10T00:35:12.299Z,989.55
2019-06-10T00:36:13.568Z,989.58
2019-06-10T00:37:14.722Z,989.58
2019-06-10T00:38:14.380Z,989.60
2019-06-10T00:39:13.478Z,989.60
2019-06-10T00:40:14.184Z,989.66
2019-06-10T00:41:14.028Z,989.65
2019-06-10T00:42:15.078Z,989.64
2019-06-10T00:43:13.589Z,989.65
2019-06-10T00:44:12.977Z,989.67
2019-06-10T00:45:17.672Z,989.68
2019-06-10T00:46:13.382Z,989.67
2019-06-10T00:47:15.065Z,989.62
2019-06-10T00:48:23.942Z,989.68
2019-06-10T00:49:14.690Z,989.70
2019-06-10T00:50:14.821Z,989.71
2019-06-10T00:51:13.895Z,989.66
2019-06-10T00:52:14.209Z,989.66
2019-06-10T00:53:14.644Z,989.65
2019-06-10T00:54:15.720Z,989.65
2019-06-10T00:55:14.498Z,989.64
2019-06-10T00:56:14.647Z,989.67
2019-06-10T00:57:14.796Z,989.66
2019-06-10T00:58:14.948Z,989.65
2019-06-10T00:59:15.482Z,989.65
2019-06-10T01:00:25.381Z,989.63
2019-06-10T01:01:15.400Z,989.64
2019-06-10T01:02:15.548Z,989.65
2019-06-10T01:03:15.702Z,989.61
2019-06-10T01:04:16.514Z,989.66
2019-06-10T01:05:16.002Z,989.60
2019-06-10T01:06:16.152Z,989.59
2019-06-10T01:07:16.301Z,989.60
2019-06-10T01:08:16.453Z,989.59
2019-06-10T01:09:16.605Z,989.59
2019-06-10T01:10:16.755Z,989.56
2019-06-10T01:11:21.254Z,989.54
2019-06-10T01:12:17.055Z,989.56
2019-06-10T01:13:17.206Z,989.52
2019-06-10T01:14:17.390Z,989.49
2019-06-10T01:15:17.542Z,989.46
2019-06-10T01:16:17.692Z,989.46
2019-06-10T01:17:17.842Z,989.40
2019-06-10T01:18:31.977Z,989.38
2019-06-10T01:19:18.143Z,989.34
2019-06-10T01:20:18.293Z,989.29
2019-06-10T01:21:18.443Z,989.23
2019-06-10T01:22:21.116Z,989.21
2019-06-10T01:23:18.744Z,989.14
2019-06-10T01:24:18.896Z,989.15
2019-06-10T01:25:19.048Z,989.11
2019-06-10T01:26:21.577Z,989.10
2019-06-10T01:27:21.171Z,989.08
2019-06-10T01:28:21.828Z,989.05
2019-06-10T01:29:21.021Z,989.06
2019-06-10T01:30:24.562Z,989.03
2019-06-10T01:31:23.899Z,989.02
2019-06-10T01:32:21.659Z,988.99
2019-06-10T01:33:21.276Z,988.98
2019-06-10T01:34:21.748Z,988.95
2019-06-10T01:35:21.105Z,988.96
2019-06-10T01:36:21.199Z,988.95
2019-06-10T01:37:21.784Z,988.92
2019-06-10T01:38:21.272Z,988.92
2019-06-10T01:39:22.685Z,988.95
2019-06-10T01:40:21.303Z,988.97
2019-06-10T01:41:21.610Z,988.99
2019-06-10T01:42:21.744Z,989.01
2019-06-10T01:43:21.758Z,989.02
2019-06-10T01:44:22.281Z,989.02
2019-06-10T01:45:22.060Z,989.00
2019-06-10T01:46:22.207Z,988.96
2019-06-10T01:47:22.356Z,988.95
2019-06-10T01:48:22.514Z,988.91
2019-06-10T01:49:22.656Z,988.91
2019-06-10T01:50:22.805Z,988.87
2019-06-10T01:51:22.957Z,988.88
2019-06-10T01:52:23.107Z,988.95
2019-06-10T01:53:23.254Z,988.96
2019-06-10T01:54:23.407Z,988.99
2019-06-10T01:55:23.558Z,989.03
2019-06-10T01:56:23.707Z,989.01
2019-06-10T01:57:23.863Z,989.02
2019-06-10T01:58:24.008Z,989.01
2019-06-10T01:59:24.175Z,988.96
2019-06-10T02:00:26.072Z,988.95
2019-06-10T02:01:24.461Z,988.90
2019-06-10T02:02:24.615Z,988.90
2019-06-10T02:03:24.763Z,988.87
2019-06-10T02:04:24.916Z,988.85
2019-06-10T02:05:25.065Z,988.86
2019-06-10T02:06:25.885Z,988.83
2019-06-10T02:07:25.360Z,988.81
2019-06-10T02:08:25.514Z,988.79
2019-06-10T02:09:25.691Z,988.82
2019-06-10T02:10:25.814Z,988.79
2019-06-10T02:11:25.966Z,988.75
2019-06-10T02:12:26.118Z,988.73
2019-06-10T02:13:26.265Z,988.71
2019-06-10T02:14:26.418Z,988.73
2019-06-10T02:15:26.573Z,988.69
2019-06-10T02:16:26.718Z,988.66
2019-06-10T02:17:26.868Z,988.67
2019-06-10T02:18:27.019Z,988.66
2019-06-10T02:19:27.167Z,988.62
2019-06-10T02:20:27.318Z,988.62
2019-06-10T02:21:27.468Z,988.57
2019-06-10T02:22:27.620Z,988.59
2019-06-10T02:23:27.770Z,988.55
2019-06-10T02:24:27.920Z,988.55
2019-06-10T02:25:30.182Z,988.61
2019-06-10T02:26:28.219Z,988.65
2019-06-10T02:27:28.372Z,988.65
2019-06-10T02:28:28.522Z,988.71
2019-06-10T02:29:30.634Z,988.74
2019-06-10T02:30:44.527Z,988.69
2019-06-10T02:31:36.561Z,988.71
2019-06-10T02:32:36.905Z,988.66
2019-06-10T02:33:32.435Z,988.69
2019-06-10T02:34:33.060Z,988.65
2019-06-10T02:35:40.087Z,988.69
2019-06-10T02:36:35.345Z,988.68
2019-06-10T02:37:32.625Z,988.69
2019-06-10T02:38:37.931Z,988.70
2019-06-10T02:39:37.539Z,988.70
2019-06-10T02:40:33.100Z,988.77
2019-06-10T02:41:35.358Z,988.78
2019-06-10T02:42:34.827Z,988.76
2019-06-10T02:43:33.302Z,988.75
2019-06-10T02:44:34.354Z,988.74
2019-06-10T02:45:36.953Z,988.72
2019-06-10T02:46:35.736Z,988.68
2019-06-10T02:47:37.086Z,988.65
2019-06-10T02:48:34.837Z,988.61
2019-06-10T02:49:51.491Z,988.61
2019-06-10T02:50:35.787Z,988.61
2019-06-10T02:51:35.434Z,988.63
2019-06-10T02:52:37.183Z,988.62
2019-06-10T02:53:36.191Z,988.69
2019-06-10T02:54:35.822Z,988.76
2019-06-10T02:55:35.136Z,988.80
2019-06-10T02:56:36.297Z,988.88
2019-06-10T02:57:38.868Z,988.91
2019-06-10T02:58:38.334Z,988.87
2019-06-10T02:59:36.417Z,988.84
2019-06-10T03:00:39.785Z,988.83
2019-06-10T03:01:37.860Z,988.75
2019-06-10T03:02:36.402Z,988.81
2019-06-10T03:03:42.527Z,988.80
2019-06-10T03:04:37.586Z,988.84
2019-06-10T03:05:40.644Z,988.87
2019-06-10T03:06:39.381Z,988.86
2019-06-10T03:07:35.573Z,988.80
2019-06-10T03:08:36.123Z,988.81
2019-06-10T03:09:35.763Z,988.77
2019-06-10T03:10:37.079Z,988.74
2019-06-10T03:11:37.361Z,988.76
2019-06-10T03:12:35.149Z,988.71
2019-06-10T03:13:35.302Z,988.76
2019-06-10T03:14:35.450Z,988.74
2019-06-10T03:15:35.639Z,988.79
2019-06-10T03:16:35.758Z,988.77
2019-06-10T03:17:35.932Z,988.78
2019-06-10T03:18:36.051Z,988.79
2019-06-10T03:19:46.999Z,988.76
2019-06-10T03:20:36.353Z,988.77
2019-06-10T03:21:36.503Z,988.74
2019-06-10T03:22:36.651Z,988.79
2019-06-10T03:23:36.802Z,988.81
2019-06-10T03:24:36.952Z,988.84
2019-06-10T03:25:37.101Z,988.86
2019-06-10T03:26:37.251Z,988.85
2019-06-10T03:27:37.401Z,988.79
2019-06-10T03:28:37.551Z,988.76
2019-06-10T03:29:37.701Z,988.75
2019-06-10T03:30:49.790Z,988.66
2019-06-10T03:31:43.124Z,988.68
2019-06-10T03:32:42.535Z,988.65
2019-06-10T03:33:41.859Z,988.59
2019-06-10T03:34:46.012Z,988.58
2019-06-10T03:35:38.605Z,988.58
2019-06-10T03:36:38.755Z,988.57
2019-06-10T03:37:38.910Z,988.52
2019-06-10T03:38:39.107Z,988.54
2019-06-10T03:39:39.208Z,988.53
2019-06-10T03:40:39.355Z,988.50
2019-06-10T03:41:39.506Z,988.46
2019-06-10T03:42:39.666Z,988.47
2019-06-10T03:43:39.807Z,988.46
2019-06-10T03:44:39.958Z,988.42
2019-06-10T03:45:42.434Z,988.38
2019-06-10T03:46:40.264Z,988.41
2019-06-10T03:47:42.492Z,988.40
2019-06-10T03:48:43.080Z,988.40
2019-06-10T03:49:51.725Z,988.38
2019-06-10T03:50:43.000Z,988.40
2019-06-10T03:51:42.796Z,988.39
2019-06-10T03:52:43.156Z,988.42
2019-06-10T03:53:42.696Z,988.40
2019-06-10T03:54:43.299Z,988.36
2019-06-10T03:55:42.359Z,988.35
2019-06-10T03:56:43.056Z,988.35
2019-06-10T03:57:42.438Z,988.33
2019-06-10T03:58:43.023Z,988.34
2019-06-10T03:59:42.294Z,988.37
2019-06-10T04:00:43.019Z,988.43
2019-06-10T04:01:42.823Z,988.42
2019-06-10T04:02:43.172Z,988.40
2019-06-10T04:03:42.975Z,988.40
2019-06-10T04:04:43.066Z,988.44
2019-06-10T04:05:43.119Z,988.48
2019-06-10T04:06:44.305Z,988.48
2019-06-10T04:07:43.430Z,988.49
2019-06-10T04:08:43.576Z,988.54
2019-06-10T04:09:43.725Z,988.49
2019-06-10T04:10:43.877Z,988.48
2019-06-10T04:11:44.028Z,988.48
2019-06-10T04:12:44.176Z,988.47
2019-06-10T04:13:44.328Z,988.46
2019-06-10T04:14:44.484Z,988.42
2019-06-10T04:15:44.631Z,988.38
2019-06-10T04:16:44.782Z,988.39
2019-06-10T04:17:44.932Z,988.40
2019-06-10T04:18:45.083Z,988.44
2019-06-10T04:19:45.232Z,988.38
2019-06-10T04:20:45.384Z,988.40
2019-06-10T04:21:45.535Z,988.38
2019-06-10T04:22:45.687Z,988.37
2019-06-10T04:23:45.837Z,988.44
2019-06-10T04:24:45.989Z,988.37
2019-06-10T04:25:46.139Z,988.41
2019-06-10T04:26:46.293Z,988.34
2019-06-10T04:27:46.440Z,988.33
2019-06-10T04:28:46.598Z,988.36
2019-06-10T04:29:46.741Z,988.34
2019-06-10T04:30:46.895Z,988.37
2019-06-10T04:31:47.044Z,988.37
2019-06-10T04:32:47.195Z,988.40
2019-06-10T04:33:47.344Z,988.41
2019-06-10T04:34:47.554Z,988.45
2019-06-10T04:35:47.675Z,988.42
2019-06-10T04:36:47.825Z,988.43
2019-06-10T04:37:47.977Z,988.45
2019-06-10T04:38:48.127Z,988.47
2019-06-10T04:39:48.277Z,988.47
2019-06-10T04:40:48.428Z,988.49
2019-06-10T04:41:48.580Z,988.48
2019-06-10T04:42:48.732Z,988.50
2019-06-10T04:43:48.883Z,988.48
2019-06-10T04:44:49.034Z,988.49
2019-06-10T04:45:49.186Z,988.49
2019-06-10T04:46:49.336Z,988.43
2019-06-10T04:47:49.489Z,988.40
2019-06-10T04:48:49.639Z,988.34
2019-06-10T04:49:52.122Z,988.35
2019-06-10T04:50:49.942Z,988.34
2019-06-10T04:51:52.223Z,988.35
2019-06-10T04:52:50.242Z,988.39
2019-06-10T04:53:52.505Z,988.35
2019-06-10T04:54:52.627Z,988.37
2019-06-10T04:55:52.246Z,988.34
2019-06-10T04:56:52.838Z,988.31
2019-06-10T04:57:52.131Z,988.27
2019-06-10T04:58:52.530Z,988.27
2019-06-10T04:59:52.967Z,988.25
2019-06-10T05:00:52.358Z,988.27
2019-06-10T05:01:53.054Z,988.25
2019-06-10T05:02:52.264Z,988.24
2019-06-10T05:03:52.664Z,988.19
2019-06-10T05:04:53.218Z,988.19
2019-06-10T05:05:52.704Z,988.19
2019-06-10T05:06:52.748Z,988.18
2019-06-10T05:07:52.507Z,988.16
2019-06-10T05:08:53.808Z,988.11
2019-06-10T05:09:52.808Z,988.17
2019-06-10T05:10:53.029Z,988.13
2019-06-10T05:11:53.112Z,988.17
2019-06-10T05:12:53.261Z,988.16
2019-06-10T05:13:53.532Z,988.19
2019-06-10T05:14:53.561Z,988.22
2019-06-10T05:15:53.711Z,988.21
2019-06-10T05:16:54.485Z,988.20
2019-06-10T05:17:54.016Z,988.20
2019-06-10T05:18:54.940Z,988.15
2019-06-10T05:19:54.321Z,988.14
2019-06-10T05:20:58.396Z,988.15
2019-06-10T05:21:54.625Z,988.17
2019-06-10T05:22:54.772Z,988.17
2019-06-10T05:23:54.926Z,988.17
2019-06-10T05:24:55.076Z,988.22
2019-06-10T05:25:56.285Z,988.23
2019-06-10T05:26:55.381Z,988.24
2019-06-10T05:27:55.533Z,988.19
2019-06-10T05:28:55.687Z,988.15
2019-06-10T05:29:55.836Z,988.14
2019-06-10T05:30:55.986Z,988.13
2019-06-10T05:31:56.138Z,988.08
2019-06-10T05:32:56.289Z,988.08
2019-06-10T05:33:56.443Z,988.10
2019-06-10T05:34:56.592Z,988.10
2019-06-10T05:35:56.754Z,988.12
2019-06-10T05:36:56.898Z,988.11
2019-06-10T05:37:57.050Z,988.13
2019-06-10T05:38:57.201Z,988.14
2019-06-10T05:39:57.357Z,988.16
2019-06-10T05:40:57.503Z,988.17
2019-06-10T05:41:57.655Z,988.20
2019-06-10T05:42:57.806Z,988.19
2019-06-10T05:43:57.956Z,988.13
2019-06-10T05:44:58.108Z,988.13
2019-06-10T05:45:58.261Z,988.15
2019-06-10T05:46:58.412Z,988.19
2019-06-10T05:47:58.566Z,988.21
2019-06-10T05:48:58.719Z,988.23
2019-06-10T05:49:58.870Z,988.24
2019-06-10T05:51:02.882Z,988.24
2019-06-10T05:51:59.174Z,988.25
2019-06-10T05:52:59.326Z,988.32
2019-06-10T05:54:02.036Z,988.28
2019-06-10T05:54:59.631Z,988.21
2019-06-10T05:56:02.043Z,988.22
2019-06-10T05:56:59.932Z,988.22
2019-06-10T05:58:02.434Z,988.15
2019-06-10T05:59:02.251Z,988.22
2019-06-10T06:00:02.991Z,988.17
2019-06-10T06:01:02.785Z,988.18
2019-06-10T06:02:02.277Z,988.19
2019-06-10T06:03:02.780Z,988.24
2019-06-10T06:04:03.159Z,988.23
2019-06-10T06:05:02.578Z,988.25
2019-06-10T06:06:03.202Z,988.23
2019-06-10T06:07:02.389Z,988.23
2019-06-10T06:08:08.201Z,988.23
2019-06-10T06:09:02.231Z,988.25
2019-06-10T06:10:02.490Z,988.24
2019-06-10T06:11:03.252Z,988.23
2019-06-10T06:12:02.610Z,988.20
2019-06-10T06:13:03.084Z,988.19
2019-06-10T06:14:02.820Z,988.17
2019-06-10T06:15:02.679Z,988.19
2019-06-10T06:16:03.442Z,988.21
2019-06-10T06:17:02.978Z,988.22
2019-06-10T06:18:09.432Z,988.26
2019-06-10T06:19:03.401Z,988.20
2019-06-10T06:20:03.432Z,988.26
2019-06-10T06:21:20.583Z,988.26
2019-06-10T06:22:03.738Z,988.29
2019-06-10T06:23:03.887Z,988.29
2019-06-10T06:24:04.246Z,988.36
2019-06-10T06:25:04.196Z,988.38
2019-06-10T06:26:04.352Z,988.34
2019-06-10T06:27:04.501Z,988.34
2019-06-10T06:28:04.655Z,988.31
2019-06-10T06:29:04.807Z,988.22
2019-06-10T06:30:11.109Z,988.14
2019-06-10T06:31:05.110Z,988.22
2019-06-10T06:32:05.265Z,988.26
2019-06-10T06:33:05.420Z,988.34
2019-06-10T06:34:05.569Z,988.34
2019-06-10T06:35:05.720Z,988.29
2019-06-10T06:36:05.876Z,988.34
2019-06-10T06:37:06.028Z,988.44
2019-06-10T06:38:06.181Z,988.39
2019-06-10T06:39:06.333Z,988.44
2019-06-10T06:40:06.487Z,988.47
2019-06-10T06:41:06.640Z,988.40
2019-06-10T06:42:06.831Z,988.40
2019-06-10T06:43:06.954Z,988.38
2019-06-10T06:44:07.109Z,988.36
2019-06-10T06:45:07.261Z,988.49
2019-06-10T06:46:07.417Z,988.47
2019-06-10T06:47:07.568Z,988.47
2019-06-10T06:48:07.721Z,988.45
2019-06-10T06:49:07.875Z,988.46
2019-06-10T06:50:08.026Z,988.35
2019-06-10T06:51:08.791Z,988.30
2019-06-10T06:52:08.335Z,988.37
2019-06-10T06:53:21.330Z,988.34
2019-06-10T06:54:08.645Z,988.34
2019-06-10T06:55:08.799Z,988.32
2019-06-10T06:56:08.951Z,988.30
2019-06-10T06:57:09.109Z,988.36
2019-06-10T06:58:09.263Z,988.32
2019-06-10T06:59:09.414Z,988.34
2019-06-10T07:00:33.814Z,988.32
2019-06-10T07:01:10.978Z,988.35
2019-06-10T07:02:12.159Z,988.32
2019-06-10T07:03:12.452Z,988.32
2019-06-10T07:04:10.188Z,988.29
2019-06-10T07:05:12.403Z,988.24
2019-06-10T07:06:13.028Z,988.25
2019-06-10T07:07:13.064Z,988.20
2019-06-10T07:08:12.932Z,988.29
2019-06-10T07:09:13.239Z,988.27
2019-06-10T07:10:12.242Z,988.19
2019-06-10T07:11:13.244Z,988.27
2019-06-10T07:12:13.030Z,988.21
2019-06-10T07:13:12.896Z,988.31
2019-06-10T07:14:13.344Z,988.23
2019-06-10T07:15:12.206Z,988.19
2019-06-10T07:16:13.159Z,988.19
2019-06-10T07:17:12.678Z,988.18
2019-06-10T07:18:13.053Z,988.20
2019-06-10T07:19:13.147Z,988.25
2019-06-10T07:20:12.763Z,988.28
2019-06-10T07:21:13.263Z,988.28
2019-06-10T07:22:16.026Z,988.25
2019-06-10T07:23:13.116Z,988.20
2019-06-10T07:24:13.271Z,988.20
2019-06-10T07:25:13.424Z,988.20
2019-06-10T07:26:13.578Z,988.27
2019-06-10T07:27:13.733Z,988.27
2019-06-10T07:28:13.891Z,988.28
2019-06-10T07:29:14.039Z,988.28
2019-06-10T07:30:15.201Z,988.26
2019-06-10T07:31:23.656Z,988.22
2019-06-10T07:32:14.500Z,988.18
2019-06-10T07:33:14.649Z,988.16
2019-06-10T07:34:14.799Z,988.19
2019-06-10T07:35:14.956Z,988.13
2019-06-10T07:36:15.108Z,988.12
2019-06-10T07:37:15.264Z,988.04
2019-06-10T07:38:15.419Z,988.03
2019-06-10T07:39:15.574Z,988.06
2019-06-10T07:40:15.731Z,988.05
2019-06-10T07:41:15.887Z,988.06
2019-06-10T07:42:16.042Z,988.11
2019-06-10T07:43:16.193Z,988.11
2019-06-10T07:44:16.349Z,988.12
2019-06-10T07:45:16.527Z,988.14
2019-06-10T07:46:16.657Z,988.13
2019-06-10T07:47:16.813Z,988.10
2019-06-10T07:48:16.969Z,988.15
2019-06-10T07:49:17.124Z,988.19
2019-06-10T07:50:17.279Z,988.17
2019-06-10T07:51:17.446Z,988.18
2019-06-10T07:52:19.915Z,988.18
2019-06-10T07:53:17.743Z,988.18
2019-06-10T07:54:17.892Z,988.14
2019-06-10T07:55:18.048Z,988.11
2019-06-10T07:56:18.199Z,988.09
2019-06-10T07:57:18.354Z,988.06
2019-06-10T07:58:18.508Z,988.07
2019-06-10T07:59:18.680Z,988.06
2019-06-10T08:00:18.830Z,988.04
2019-06-10T08:01:18.984Z,988.09
2019-06-10T08:02:19.133Z,988.05
2019-06-10T08:03:19.286Z,988.07
2019-06-10T08:04:19.440Z,988.11
2019-06-10T08:05:19.595Z,988.09
2019-06-10T08:06:19.749Z,988.10
2019-06-10T08:07:22.396Z,988.16
2019-06-10T08:08:20.060Z,988.17
2019-06-10T08:09:22.628Z,988.23
2019-06-10T08:10:20.369Z,988.22
2019-06-10T08:11:22.668Z,988.21
2019-06-10T08:12:23.106Z,988.14
2019-06-10T08:13:22.656Z,988.20
2019-06-10T08:14:22.279Z,988.25
2019-06-10T08:15:22.983Z,988.11
2019-06-10T08:16:23.656Z,988.16
2019-06-10T08:17:22.453Z,988.18
2019-06-10T08:18:22.555Z,988.19
2019-06-10T08:19:31.656Z,988.21
2019-06-10T08:20:22.303Z,988.23
2019-06-10T08:21:22.885Z,988.18
2019-06-10T08:22:31.146Z,988.08
2019-06-10T08:23:23.649Z,987.97
2019-06-10T08:24:22.553Z,987.94
2019-06-10T08:25:22.985Z,987.90
2019-06-10T08:26:23.264Z,987.93
2019-06-10T08:27:23.013Z,987.88
2019-06-10T08:28:23.313Z,987.91
2019-06-10T08:29:23.554Z,987.87
2019-06-10T08:30:27.465Z,987.82
2019-06-10T08:31:23.640Z,987.87
2019-06-10T08:32:24.502Z,987.84
2019-06-10T08:33:23.953Z,987.86
2019-06-10T08:34:24.106Z,987.84
2019-06-10T08:35:38.503Z,987.82
2019-06-10T08:36:24.419Z,987.93
2019-06-10T08:37:24.583Z,987.93
2019-06-10T08:38:24.729Z,987.91
2019-06-10T08:39:24.891Z,987.88
2019-06-10T08:40:25.043Z,987.88
2019-06-10T08:41:25.199Z,987.88
2019-06-10T08:42:25.356Z,987.91
2019-06-10T08:43:25.517Z,987.89
2019-06-10T08:44:25.668Z,987.97
2019-06-10T08:45:25.823Z,987.94
2019-06-10T08:46:25.983Z,987.96
2019-06-10T08:47:26.135Z,987.97
2019-06-10T08:48:26.289Z,987.94
2019-06-10T08:49:26.445Z,987.94
2019-06-10T08:50:26.595Z,987.95
2019-06-10T08:51:26.751Z,987.95
2019-06-10T08:52:26.921Z,987.92
2019-06-10T08:53:27.079Z,987.94
2019-06-10T08:54:27.239Z,987.96
2019-06-10T08:55:27.391Z,987.89
2019-06-10T08:56:27.550Z,987.96
2019-06-10T08:57:27.703Z,987.88
2019-06-10T08:58:27.857Z,987.88
2019-06-10T08:59:28.017Z,987.84
2019-06-10T09:00:28.174Z,987.81
2019-06-10T09:01:28.326Z,987.76
2019-06-10T09:02:28.481Z,987.77
2019-06-10T09:03:28.643Z,987.83
2019-06-10T09:04:29.550Z,987.85
2019-06-10T09:05:28.956Z,987.84
2019-06-10T09:06:29.111Z,987.84
2019-06-10T09:07:29.268Z,987.84
2019-06-10T09:08:29.422Z,987.84
2019-06-10T09:09:29.579Z,987.83
2019-06-10T09:10:29.743Z,987.78
2019-06-10T09:11:29.897Z,987.84
2019-06-10T09:12:35.822Z,987.82
2019-06-10T09:13:31.261Z,987.77
2019-06-10T09:14:32.590Z,987.75
2019-06-10T09:15:32.507Z,987.71
2019-06-10T09:16:32.434Z,987.65
2019-06-10T09:17:33.804Z,987.62
2019-06-10T09:18:33.440Z,987.64
2019-06-10T09:19:33.218Z,987.60
2019-06-10T09:20:33.127Z,987.65
2019-06-10T09:21:32.991Z,987.64
2019-06-10T09:22:32.717Z,987.59
2019-06-10T09:23:33.116Z,987.51
2019-06-10T09:24:32.767Z,987.60
2019-06-10T09:25:33.353Z,987.53
2019-06-10T09:26:33.695Z,987.51
2019-06-10T09:27:32.857Z,987.60
2019-06-10T09:28:32.952Z,987.53
2019-06-10T09:29:33.003Z,987.52
2019-06-10T09:30:33.397Z,987.52
2019-06-10T09:31:33.254Z,987.57
2019-06-10T09:32:33.205Z,987.64
2019-06-10T09:33:33.395Z,987.56
2019-06-10T09:34:33.518Z,987.55
2019-06-10T09:35:33.678Z,987.54
2019-06-10T09:36:33.833Z,987.57
2019-06-10T09:37:33.990Z,987.54
2019-06-10T09:38:34.667Z,987.52
2019-06-10T09:39:34.310Z,987.48
2019-06-10T09:40:34.463Z,987.52
2019-06-10T09:41:40.121Z,987.42
2019-06-10T09:42:34.777Z,987.48
2019-06-10T09:43:34.933Z,987.35
2019-06-10T09:44:35.093Z,987.38
2019-06-10T09:45:35.248Z,987.36
2019-06-10T09:46:35.406Z,987.43
2019-06-10T09:47:35.564Z,987.33
2019-06-10T09:48:35.722Z,987.33
2019-06-10T09:49:35.888Z,987.34
2019-06-10T09:50:36.035Z,987.45
2019-06-10T09:51:36.191Z,987.46
2019-06-10T09:52:36.347Z,987.37
2019-06-10T09:53:42.794Z,987.38
2019-06-10T09:54:36.663Z,987.41
2019-06-10T09:55:36.823Z,987.39
2019-06-10T09:56:36.980Z,987.37
2019-06-10T09:57:37.137Z,987.37
2019-06-10T09:58:37.296Z,987.33
2019-06-10T09:59:37.454Z,987.44
2019-06-10T10:00:37.612Z,987.51
2019-06-10T10:01:37.769Z,987.45
2019-06-10T10:02:37.926Z,987.52
2019-06-10T10:03:38.082Z,987.51
2019-06-10T10:04:38.274Z,987.48
2019-06-10T10:05:38.397Z,987.46
2019-06-10T10:06:38.553Z,987.46
2019-06-10T10:07:38.711Z,987.45
2019-06-10T10:08:38.868Z,987.45
2019-06-10T10:09:39.027Z,987.44
2019-06-10T10:10:39.187Z,987.42
2019-06-10T10:11:39.361Z,987.35
2019-06-10T10:12:39.502Z,987.29
2019-06-10T10:13:42.461Z,987.28
2019-06-10T10:14:39.823Z,987.36
2019-06-10T10:15:39.980Z,987.31
2019-06-10T10:16:40.846Z,987.29
2019-06-10T10:17:44.489Z,987.30
2019-06-10T10:18:42.520Z,987.31
2019-06-10T10:19:43.304Z,987.30
2019-06-10T10:20:44.600Z,987.42
2019-06-10T10:21:45.650Z,987.39
2019-06-10T10:22:43.786Z,987.47
2019-06-10T10:23:52.494Z,987.37
2019-06-10T10:24:43.865Z,987.36
2019-06-10T10:25:44.877Z,987.30
2019-06-10T10:26:43.341Z,987.29
2019-06-10T10:27:45.563Z,987.32
2019-06-10T10:28:42.794Z,987.24
2019-06-10T10:29:43.680Z,987.25
2019-06-10T10:30:44.970Z,987.24
2019-06-10T10:31:44.991Z,987.28
2019-06-10T10:32:46.876Z,987.27
2019-06-10T10:33:43.107Z,987.23
2019-06-10T10:34:45.040Z,987.20
2019-06-10T10:35:45.766Z,987.17
2019-06-10T10:36:45.362Z,987.17
2019-06-10T10:37:44.571Z,987.12
2019-06-10T10:38:44.738Z,987.08
2019-06-10T10:39:44.682Z,987.13
2019-06-10T10:40:47.087Z,987.10
2019-06-10T10:41:45.193Z,987.19
2019-06-10T10:42:48.605Z,987.23
2019-06-10T10:43:46.825Z,987.20
2019-06-10T10:44:48.108Z,987.25
2019-06-10T10:45:47.468Z,987.24
2019-06-10T10:46:45.607Z,987.09
2019-06-10T10:47:45.051Z,987.19
2019-06-10T10:48:45.206Z,987.17
2019-06-10T10:49:45.365Z,987.12
2019-06-10T10:50:45.720Z,987.10
2019-06-10T10:51:46.923Z,987.15
2019-06-10T10:52:46.773Z,987.15
2019-06-10T10:53:50.570Z,987.18
2019-06-10T10:54:46.754Z,987.15
2019-06-10T10:55:47.196Z,987.18
2019-06-10T10:56:49.162Z,987.17
2019-06-10T10:57:47.263Z,987.14
2019-06-10T10:58:47.641Z,987.16
2019-06-10T10:59:47.799Z,987.22
2019-06-10T11:00:49.769Z,987.14
2019-06-10T11:01:47.584Z,987.14
2019-06-10T11:02:50.623Z,987.10
2019-06-10T11:03:49.555Z,987.09
2019-06-10T11:04:48.011Z,987.13
2019-06-10T11:05:49.912Z,987.02
2019-06-10T11:06:48.043Z,987.05
2019-06-10T11:07:48.203Z,986.98
2019-06-10T11:08:48.419Z,986.96
2019-06-10T11:09:48.952Z,986.94
2019-06-10T11:10:49.907Z,986.93
2019-06-10T11:11:48.948Z,986.92
2019-06-10T11:12:49.088Z,986.88
2019-06-10T11:13:49.388Z,986.75
2019-06-10T11:14:49.354Z,986.74
2019-06-10T11:15:49.486Z,986.72
2019-06-10T11:16:49.642Z,986.65
2019-06-10T11:17:49.803Z,986.60
2019-06-10T11:18:52.000Z,986.67
2019-06-10T11:19:53.727Z,986.67
2019-06-10T11:20:51.394Z,986.65
2019-06-10T11:21:51.507Z,986.65
2019-06-10T11:22:51.590Z,986.62
2019-06-10T11:23:54.240Z,986.58
2019-06-10T11:24:53.593Z,986.52
2019-06-10T11:25:53.698Z,986.50
2019-06-10T11:26:55.172Z,986.51
2019-06-10T11:27:53.062Z,986.51
2019-06-10T11:28:54.375Z,986.55
2019-06-10T11:29:53.563Z,986.56
2019-06-10T11:30:56.358Z,986.41
2019-06-10T11:31:55.054Z,986.41
2019-06-10T11:32:55.662Z,986.38
2019-06-10T11:33:56.993Z,986.38
2019-06-10T11:34:56.512Z,986.40
2019-06-10T11:35:55.132Z,986.34
2019-06-10T11:36:55.050Z,986.33
2019-06-10T11:37:54.055Z,986.36
2019-06-10T11:38:55.573Z,986.35
2019-06-10T11:39:54.963Z,986.25
2019-06-10T11:40:57.728Z,986.31
2019-06-10T11:41:56.034Z,986.23
2019-06-10T11:42:56.514Z,986.18
2019-06-10T11:43:57.761Z,986.13
2019-06-10T11:44:57.409Z,986.15
2019-06-10T11:45:59.850Z,986.11
2019-06-10T11:46:57.515Z,986.08
2019-06-10T11:47:56.635Z,986.00
2019-06-10T11:48:57.247Z,985.96
2019-06-10T11:49:55.419Z,985.94
2019-06-10T11:50:58.431Z,985.91
2019-06-10T11:51:56.494Z,985.91
2019-06-10T11:53:00.243Z,985.92
2019-06-10T11:53:57.180Z,985.93
2019-06-10T11:55:08.869Z,985.97
2019-06-10T11:55:56.438Z,985.94
2019-06-10T11:56:57.795Z,985.99
2019-06-10T11:57:57.705Z,986.00
2019-06-10T11:58:58.606Z,986.03
2019-06-10T11:59:57.787Z,985.98
2019-06-10T12:00:58.789Z,986.00
2019-06-10T12:01:59.862Z,986.01
2019-06-10T12:02:58.712Z,986.00
2019-06-10T12:03:58.887Z,986.03
2019-06-10T12:04:59.326Z,986.02
2019-06-10T12:06:00.758Z,986.03
2019-06-10T12:06:58.953Z,986.05
2019-06-10T12:08:01.244Z,986.10
2019-06-10T12:09:00.865Z,986.14
2019-06-10T12:10:00.786Z,986.12
2019-06-10T12:11:01.812Z,986.16
2019-06-10T12:12:01.922Z,986.13
2019-06-10T12:13:03.054Z,986.10
2019-06-10T12:14:03.884Z,986.05
2019-06-10T12:15:01.257Z,985.97
2019-06-10T12:17:11.219Z,985.95
2019-06-10T12:17:22.293Z,985.99
2019-06-10T12:18:05.978Z,985.95
2019-06-10T12:19:00.852Z,985.92
2019-06-10T12:20:02.989Z,985.87
2019-06-10T12:21:03.565Z,985.85
2019-06-10T12:22:06.365Z,985.83
2019-06-10T12:23:03.791Z,985.77
2019-06-10T12:24:02.394Z,985.77
2019-06-10T12:25:25.006Z,985.78
2019-06-10T12:26:01.642Z,985.81
2019-06-10T12:27:04.473Z,985.85
2019-06-10T12:28:04.498Z,985.82
2019-06-10T12:29:05.300Z,985.88
2019-06-10T12:30:04.841Z,985.84